createdAt,value
2019-01-25T00:01:10.007Z,4.60
2019-01-25T00:03:56.320Z,4.60
2019-01-25T00:06:04.984Z,3.73
2019-01-25T00:08:47.058Z,4.40
2019-01-25T00:11:18.631Z,4.87
2019-01-25T00:13:26.343Z,4.60
2019-01-25T00:15:39.238Z,4.90
2019-01-25T00:20:35.606Z,4.10
2019-01-25T00:22:58.961Z,5.03
2019-01-25T00:25:07.334Z,4.30
2019-01-25T00:27:14.334Z,4.23
2019-01-25T00:29:21.643Z,4.37
2019-01-25T00:31:28.920Z,4.00
2019-01-25T00:33:35.748Z,4.20
2019-01-25T00:35:42.958Z,3.93
2019-01-25T00:37:49.859Z,2.80
2019-01-25T00:39:58.575Z,2.93
2019-01-25T00:42:05.467Z,3.50
2019-01-25T00:44:13.281Z,2.73
2019-01-25T00:46:20.160Z,3.23
2019-01-25T00:48:26.883Z,2.30
2019-01-25T00:50:34.022Z,2.97
2019-01-25T00:52:40.845Z,2.50
2019-01-25T00:54:47.561Z,2.70
2019-01-25T00:56:54.836Z,3.13
2019-01-25T00:59:02.319Z,2.77
2019-01-25T01:01:10.441Z,2.80
2019-01-25T01:03:17.896Z,2.67
2019-01-25T01:05:24.899Z,2.60
2019-01-25T01:07:32.268Z,2.33
2019-01-25T01:09:40.740Z,2.43
2019-01-25T01:11:48.608Z,2.97
2019-01-25T01:13:55.911Z,2.47
2019-01-25T01:16:03.370Z,2.80
2019-01-25T01:18:10.192Z,2.97
2019-01-25T01:20:18.903Z,2.00
2019-01-25T01:22:26.259Z,2.03
2019-01-25T01:24:33.062Z,2.10
2019-01-25T01:26:39.855Z,1.90
2019-01-25T01:28:47.384Z,2.93
2019-01-25T01:30:54.928Z,1.93
2019-01-25T01:33:02.180Z,1.80
2019-01-25T01:35:09.014Z,1.70
2019-01-25T01:37:15.860Z,1.60
2019-01-25T01:39:22.597Z,1.50
2019-01-25T01:41:29.694Z,1.40
2019-01-25T01:43:36.981Z,1.70
2019-01-25T01:46:30.571Z,1.20
2019-01-25T01:48:49.546Z,1.47
2019-01-25T01:51:47.132Z,1.40
2019-01-25T01:53:54.517Z,1.40
2019-01-25T01:56:01.676Z,1.13
2019-01-25T01:58:09.643Z,1.27
2019-01-25T02:00:23.215Z,1.30
2019-01-25T02:02:30.357Z,1.30
2019-01-25T02:04:37.147Z,1.00
2019-01-25T02:06:44.475Z,1.10
2019-01-25T02:08:51.615Z,0.90
2019-01-25T02:10:58.439Z,0.87
2019-01-25T02:13:05.781Z,0.80
2019-01-25T02:15:14.604Z,0.90
2019-01-25T02:17:22.086Z,0.90
2019-01-25T02:19:31.304Z,1.00
2019-01-25T02:21:38.309Z,0.80
2019-01-25T02:23:46.277Z,0.80
2019-01-25T02:25:53.122Z,0.70
2019-01-25T02:28:00.247Z,0.70
2019-01-25T02:30:08.767Z,0.60
2019-01-25T02:32:31.793Z,0.60
2019-01-25T02:34:46.450Z,0.83
2019-01-25T02:37:00.902Z,0.70
2019-01-25T02:39:15.867Z,0.80
2019-01-25T02:41:35.278Z,0.63
2019-01-25T02:43:43.234Z,0.70
2019-01-25T02:45:50.212Z,0.80
2019-01-25T02:47:57.663Z,0.70
2019-01-25T02:50:06.531Z,0.73
2019-01-25T02:52:13.282Z,0.60
2019-01-25T02:54:20.606Z,0.87
2019-01-25T02:56:28.411Z,0.73
2019-01-25T02:58:36.730Z,0.70
2019-01-25T03:00:43.521Z,0.80
2019-01-25T03:02:50.606Z,0.70
2019-01-25T03:04:57.339Z,0.70
2019-01-25T03:07:04.675Z,0.73
2019-01-25T03:09:13.757Z,0.70
2019-01-25T03:11:21.806Z,0.67
2019-01-25T03:13:28.815Z,0.60
2019-01-25T03:15:36.479Z,0.70
2019-01-25T03:17:44.087Z,0.57
2019-01-25T03:19:51.675Z,0.70
2019-01-25T03:21:58.643Z,0.50
2019-01-25T03:24:05.963Z,0.50
2019-01-25T03:26:13.023Z,0.50
2019-01-25T03:28:19.983Z,0.50
2019-01-25T03:30:27.884Z,0.73
2019-01-25T03:32:35.680Z,0.50
2019-01-25T03:34:43.461Z,0.90
2019-01-25T03:36:50.975Z,0.60
2019-01-25T03:38:58.023Z,0.63
2019-01-25T03:41:05.068Z,0.60
2019-01-25T03:43:12.020Z,0.80
2019-01-25T03:45:19.238Z,1.03
2019-01-25T03:47:26.207Z,0.57
2019-01-25T03:49:33.213Z,0.43
2019-01-25T03:51:40.194Z,0.57
2019-01-25T03:53:47.197Z,0.50
2019-01-25T03:55:54.171Z,0.50
2019-01-25T03:58:01.411Z,0.40
2019-01-25T04:00:10.742Z,0.50
2019-01-25T04:02:17.748Z,0.60
2019-01-25T04:04:25.688Z,0.50
2019-01-25T04:06:32.749Z,0.40
2019-01-25T04:08:39.778Z,0.50
2019-01-25T04:10:46.746Z,0.70
2019-01-25T04:12:54.212Z,0.70
2019-01-25T04:15:02.655Z,0.40
2019-01-25T04:17:10.147Z,0.40
2019-01-25T04:19:18.287Z,0.43
2019-01-25T04:21:25.818Z,0.50
2019-01-25T04:23:33.889Z,0.50
2019-01-25T04:25:41.552Z,0.50
2019-01-25T04:27:48.990Z,0.50
2019-01-25T04:29:57.549Z,0.70
2019-01-25T04:32:04.526Z,0.30
2019-01-25T04:34:11.546Z,0.50
2019-01-25T04:36:19.094Z,0.57
2019-01-25T04:38:26.591Z,0.50
2019-01-25T04:40:33.546Z,0.60
2019-01-25T04:42:42.162Z,0.40
2019-01-25T04:44:49.567Z,0.30
2019-01-25T04:46:57.651Z,0.60
2019-01-25T04:49:05.853Z,0.20
2019-01-25T04:51:12.824Z,0.40
2019-01-25T04:53:20.272Z,0.40
2019-01-25T04:55:29.820Z,0.47
2019-01-25T04:57:37.351Z,0.40
2019-01-25T04:59:44.901Z,0.40
2019-01-25T05:01:52.713Z,0.33
2019-01-25T05:03:59.663Z,0.37
2019-01-25T05:06:07.994Z,0.50
2019-01-25T05:08:21.223Z,0.40
2019-01-25T05:10:28.734Z,0.57
2019-01-25T05:12:35.702Z,0.40
2019-01-25T05:14:43.537Z,0.67
2019-01-25T05:16:51.719Z,0.50
2019-01-25T05:18:59.507Z,0.40
2019-01-25T05:21:06.986Z,0.50
2019-01-25T05:23:14.002Z,0.37
2019-01-25T05:25:26.424Z,0.40
2019-01-25T05:27:34.014Z,0.50
2019-01-25T05:29:54.001Z,0.70
2019-01-25T05:32:04.209Z,0.30
2019-01-25T05:34:11.220Z,0.50
2019-01-25T05:36:18.164Z,0.20
2019-01-25T05:38:25.775Z,0.50
2019-01-25T05:40:33.390Z,0.30
2019-01-25T05:42:40.369Z,0.40
2019-01-25T05:44:47.618Z,0.43
2019-01-25T05:46:54.600Z,0.60
2019-01-25T05:49:07.562Z,0.50
2019-01-25T05:51:15.172Z,0.30
2019-01-25T05:53:22.340Z,0.30
2019-01-25T05:55:29.910Z,0.50
2019-01-25T05:57:36.980Z,0.50
2019-01-25T05:59:44.776Z,0.40
2019-01-25T06:01:52.644Z,0.40
2019-01-25T06:04:00.495Z,0.50
2019-01-25T06:06:08.962Z,0.40
2019-01-25T06:08:33.045Z,0.40
2019-01-25T06:10:40.038Z,0.40
2019-01-25T06:12:50.434Z,0.50
2019-01-25T06:14:58.848Z,0.43
2019-01-25T06:17:07.220Z,0.30
2019-01-25T06:19:15.535Z,0.40
2019-01-25T06:21:23.340Z,0.60
2019-01-25T06:23:31.210Z,0.23
2019-01-25T06:25:39.952Z,0.37
2019-01-25T06:27:46.826Z,0.30
2019-01-25T06:29:53.515Z,0.50
2019-01-25T06:32:01.462Z,0.40
2019-01-25T06:34:09.324Z,0.30
2019-01-25T06:36:16.633Z,0.30
2019-01-25T06:38:23.513Z,0.40
2019-01-25T06:40:30.878Z,0.20
2019-01-25T06:42:38.152Z,0.30
2019-01-25T06:44:44.995Z,0.20
2019-01-25T06:46:51.902Z,0.20
2019-01-25T06:48:59.293Z,0.40
2019-01-25T06:51:06.685Z,0.30
2019-01-25T06:53:14.171Z,0.30
2019-01-25T06:55:21.183Z,0.40
2019-01-25T06:57:43.532Z,0.30
2019-01-25T06:59:50.812Z,0.33
2019-01-25T07:02:20.396Z,0.30
2019-01-25T07:04:27.190Z,0.30
2019-01-25T07:06:33.961Z,0.33
2019-01-25T07:08:40.695Z,0.40
2019-01-25T07:10:48.219Z,0.33
2019-01-25T07:12:55.009Z,0.40
2019-01-25T07:15:01.782Z,0.50
2019-01-25T07:17:08.695Z,0.40
2019-01-25T07:19:15.519Z,0.20
2019-01-25T07:21:22.725Z,0.50
2019-01-25T07:23:29.548Z,0.20
2019-01-25T07:25:36.337Z,0.30
2019-01-25T07:27:43.133Z,0.40
2019-01-25T07:29:49.993Z,0.20
2019-01-25T07:31:56.796Z,0.40
2019-01-25T07:34:03.540Z,0.40
2019-01-25T07:36:10.352Z,0.20
2019-01-25T07:38:17.509Z,0.40
2019-01-25T07:40:24.301Z,0.20
2019-01-25T07:42:31.089Z,0.40
2019-01-25T07:44:38.316Z,0.30
2019-01-25T07:46:45.621Z,0.20
2019-01-25T07:48:52.530Z,0.40
2019-01-25T07:50:59.901Z,0.40
2019-01-25T07:53:08.404Z,0.40
2019-01-25T07:55:15.880Z,0.50
2019-01-25T07:57:26.545Z,0.20
2019-01-25T07:59:33.377Z,0.33
2019-01-25T08:01:40.132Z,0.23
2019-01-25T08:03:47.459Z,0.30
2019-01-25T08:05:54.900Z,0.30
2019-01-25T08:08:02.249Z,0.40
2019-01-25T08:10:11.277Z,0.30
2019-01-25T08:12:18.626Z,0.30
2019-01-25T08:14:25.389Z,0.27
2019-01-25T08:16:32.264Z,0.40
2019-01-25T08:18:39.635Z,0.30
2019-01-25T08:20:46.443Z,0.13
2019-01-25T08:22:53.761Z,0.30
2019-01-25T08:25:01.322Z,0.50
2019-01-25T08:27:08.887Z,0.30
2019-01-25T08:29:16.029Z,0.30
2019-01-25T08:31:22.771Z,0.30
2019-01-25T08:33:30.121Z,0.27
2019-01-25T08:35:36.904Z,0.30
2019-01-25T08:37:43.692Z,0.30
2019-01-25T08:39:51.657Z,0.30
2019-01-25T08:41:58.464Z,0.20
2019-01-25T08:44:05.557Z,0.50
2019-01-25T08:46:12.500Z,0.30
2019-01-25T08:48:20.297Z,0.30
2019-01-25T08:50:28.072Z,0.20
2019-01-25T08:52:35.036Z,0.30
2019-01-25T08:54:41.932Z,0.30
2019-01-25T08:56:49.599Z,0.80
2019-01-25T08:58:56.370Z,0.30
2019-01-25T09:01:04.286Z,0.20
2019-01-25T09:03:11.042Z,0.27
2019-01-25T09:05:18.936Z,0.30
2019-01-25T09:07:26.874Z,0.20
2019-01-25T09:09:34.805Z,0.13
2019-01-25T09:11:41.620Z,0.20
2019-01-25T09:13:48.350Z,0.30
2019-01-25T09:15:55.130Z,0.30
2019-01-25T09:18:01.949Z,0.20
2019-01-25T09:20:14.467Z,0.30
2019-01-25T09:22:18.722Z,0.20
2019-01-25T09:24:25.501Z,0.20
2019-01-25T09:26:32.281Z,0.20
2019-01-25T09:28:40.730Z,0.30
2019-01-25T09:30:47.518Z,0.30
2019-01-25T09:32:54.606Z,0.30
2019-01-25T09:35:01.837Z,0.17
2019-01-25T09:37:08.630Z,0.30
2019-01-25T09:39:15.414Z,0.23
2019-01-25T09:41:22.194Z,0.20
2019-01-25T09:43:29.415Z,0.20
2019-01-25T09:45:36.170Z,0.20
2019-01-25T09:47:42.958Z,0.30
2019-01-25T09:49:49.748Z,0.23
2019-01-25T09:51:57.214Z,0.20
2019-01-25T09:54:03.995Z,0.30
2019-01-25T09:56:10.802Z,0.30
2019-01-25T09:58:19.379Z,0.33
2019-01-25T10:00:29.396Z,0.20
2019-01-25T10:02:36.571Z,0.20
2019-01-25T10:04:43.348Z,0.17
2019-01-25T10:06:51.670Z,0.37
2019-01-25T10:08:59.213Z,0.30
2019-01-25T10:11:06.583Z,0.20
2019-01-25T10:13:14.285Z,0.40
2019-01-25T10:15:23.975Z,0.20
2019-01-25T10:17:32.026Z,0.30
2019-01-25T10:19:39.043Z,0.30
2019-01-25T10:21:46.619Z,0.20
2019-01-25T10:23:53.403Z,0.30
2019-01-25T10:26:00.916Z,0.20
2019-01-25T10:28:07.785Z,0.20
2019-01-25T10:30:17.636Z,0.30
2019-01-25T10:32:25.530Z,0.27
2019-01-25T10:34:32.348Z,0.30
2019-01-25T10:36:39.689Z,0.23
2019-01-25T10:38:46.445Z,0.20
2019-01-25T10:40:53.711Z,0.20
2019-01-25T10:43:01.017Z,0.20
2019-01-25T10:45:10.125Z,0.30
2019-01-25T10:47:17.478Z,0.50
2019-01-25T10:49:24.244Z,0.20
2019-01-25T10:51:31.207Z,0.30
2019-01-25T10:53:38.376Z,0.30
2019-01-25T10:55:45.587Z,0.30
2019-01-25T10:57:52.539Z,0.37
2019-01-25T11:00:00.499Z,0.20
2019-01-25T11:02:07.930Z,0.23
2019-01-25T11:04:15.775Z,0.20
2019-01-25T11:06:22.566Z,0.20
2019-01-25T11:08:29.816Z,0.30
2019-01-25T11:10:36.556Z,0.30
2019-01-25T11:12:44.467Z,0.30
2019-01-25T11:14:51.784Z,0.20
2019-01-25T11:16:58.538Z,0.20
2019-01-25T11:19:05.860Z,0.50
2019-01-25T11:21:12.598Z,0.30
2019-01-25T11:23:19.699Z,0.27
2019-01-25T11:25:29.049Z,0.30
2019-01-25T11:27:36.522Z,0.20
2019-01-25T11:29:43.687Z,0.10
2019-01-25T11:31:51.014Z,0.30
2019-01-25T11:33:57.834Z,0.20
2019-01-25T11:36:04.814Z,0.20
2019-01-25T11:38:11.616Z,0.23
2019-01-25T11:40:21.601Z,0.30
2019-01-25T11:42:28.381Z,0.30
2019-01-25T11:44:35.174Z,0.20
2019-01-25T11:46:43.694Z,0.27
2019-01-25T11:48:50.468Z,0.40
2019-01-25T11:50:57.812Z,0.30
2019-01-25T11:53:04.605Z,0.20
2019-01-25T11:55:11.827Z,0.33
2019-01-25T11:57:20.824Z,0.40
2019-01-25T11:59:28.010Z,0.20
2019-01-25T12:01:34.874Z,0.30
2019-01-25T12:03:42.188Z,0.30
2019-01-25T12:05:48.978Z,0.30
2019-01-25T12:07:56.814Z,0.30
2019-01-25T12:10:03.608Z,0.20
2019-01-25T12:12:10.889Z,0.20
2019-01-25T12:14:17.676Z,0.30
2019-01-25T12:16:24.475Z,0.30
2019-01-25T12:18:31.360Z,0.20
2019-01-25T12:20:38.785Z,0.20
2019-01-25T12:22:45.720Z,0.23
2019-01-25T12:24:52.886Z,0.20
2019-01-25T12:26:59.631Z,0.30
2019-01-25T12:29:06.644Z,0.30
2019-01-25T12:31:13.381Z,0.30
2019-01-25T12:33:20.921Z,0.20
2019-01-25T12:35:28.531Z,0.30
2019-01-25T12:37:35.295Z,0.20
2019-01-25T12:39:42.637Z,0.20
2019-01-25T12:41:49.802Z,0.20
2019-01-25T12:43:56.583Z,0.20
2019-01-25T12:46:03.692Z,0.20
2019-01-25T12:48:10.516Z,0.20
2019-01-25T12:50:20.351Z,0.10
2019-01-25T12:52:27.686Z,0.30
2019-01-25T12:54:34.466Z,0.20
2019-01-25T12:56:41.620Z,0.30
2019-01-25T12:58:48.383Z,0.10
2019-01-25T13:00:55.233Z,0.20
2019-01-25T13:03:02.949Z,0.20
2019-01-25T13:05:11.562Z,0.20
2019-01-25T13:07:19.375Z,0.47
2019-01-25T13:09:27.552Z,0.40
2019-01-25T13:11:34.392Z,0.20
2019-01-25T13:13:41.233Z,0.40
2019-01-25T13:15:48.021Z,0.40
2019-01-25T13:17:54.759Z,0.30
2019-01-25T13:20:01.559Z,0.20
2019-01-25T13:22:08.311Z,0.30
2019-01-25T13:24:15.640Z,0.20
2019-01-25T13:26:22.438Z,0.20
2019-01-25T13:28:29.205Z,0.20
2019-01-25T13:30:36.219Z,0.30
2019-01-25T13:32:43.242Z,0.57
2019-01-25T13:34:50.609Z,0.40
2019-01-25T13:36:58.012Z,0.30
2019-01-25T13:39:06.751Z,0.30
2019-01-25T13:41:13.682Z,0.20
2019-01-25T13:43:21.116Z,0.30
2019-01-25T13:45:27.984Z,0.30
2019-01-25T13:47:34.752Z,0.30
2019-01-25T13:49:41.581Z,0.83
2019-01-25T13:51:48.897Z,0.70
2019-01-25T13:53:56.292Z,0.40
2019-01-25T13:56:03.114Z,0.23
2019-01-25T13:58:10.602Z,0.40
2019-01-25T14:00:23.157Z,0.40
2019-01-25T14:02:29.964Z,0.90
2019-01-25T14:04:37.607Z,0.50
2019-01-25T14:06:45.121Z,0.60
2019-01-25T14:08:51.897Z,0.60
2019-01-25T14:10:59.197Z,0.60
2019-01-25T14:13:06.588Z,0.80
2019-01-25T14:15:27.647Z,0.50
2019-01-25T14:17:34.429Z,0.80
2019-01-25T14:19:41.548Z,0.93
2019-01-25T14:21:48.907Z,0.50
2019-01-25T14:23:55.710Z,0.90
2019-01-25T14:26:03.120Z,0.87
2019-01-25T14:28:09.955Z,0.97
2019-01-25T14:30:24.819Z,0.93
2019-01-25T14:32:32.288Z,0.90
2019-01-25T14:34:39.679Z,2.13
2019-01-25T14:36:46.570Z,1.23
2019-01-25T14:38:53.428Z,0.80
2019-01-25T14:41:00.812Z,1.30
2019-01-25T14:43:07.552Z,1.00
2019-01-25T14:45:14.866Z,1.13
2019-01-25T14:47:22.942Z,1.10
2019-01-25T14:49:29.753Z,0.70
2019-01-25T14:51:36.764Z,0.93
2019-01-25T14:53:43.504Z,0.83
2019-01-25T14:55:50.345Z,0.73
2019-01-25T14:57:57.506Z,1.00
2019-01-25T15:00:04.525Z,1.00
2019-01-25T15:02:11.378Z,1.07
2019-01-25T15:04:18.215Z,1.40
2019-01-25T15:06:25.044Z,0.83
2019-01-25T15:08:31.803Z,0.87
2019-01-25T15:10:39.123Z,0.80
2019-01-25T15:12:46.162Z,1.00
2019-01-25T15:14:53.025Z,0.77
2019-01-25T15:16:59.853Z,0.70
2019-01-25T15:19:06.602Z,0.60
2019-01-25T15:21:13.388Z,0.90
2019-01-25T15:23:20.563Z,0.60
2019-01-25T15:25:27.517Z,0.70
2019-01-25T15:27:34.302Z,0.80
2019-01-25T15:29:41.077Z,0.60
2019-01-25T15:31:48.369Z,0.80
2019-01-25T15:33:55.596Z,0.60
2019-01-25T15:36:02.902Z,0.80
2019-01-25T15:38:09.956Z,0.50
2019-01-25T15:40:17.337Z,0.70
2019-01-25T15:42:24.177Z,0.50
2019-01-25T15:44:31.325Z,0.57
2019-01-25T15:46:38.680Z,0.50
2019-01-25T15:48:45.523Z,0.67
2019-01-25T15:50:52.254Z,0.57
2019-01-25T15:52:59.365Z,0.60
2019-01-25T15:55:06.677Z,0.63
2019-01-25T15:57:14.920Z,0.50
2019-01-25T15:59:21.817Z,0.70
2019-01-25T16:01:29.327Z,0.60
2019-01-25T16:03:37.199Z,0.53
2019-01-25T16:05:45.221Z,0.97
2019-01-25T16:07:52.478Z,0.63
2019-01-25T16:09:59.226Z,0.43
2019-01-25T16:12:06.058Z,0.40
2019-01-25T16:14:17.876Z,0.67
2019-01-25T16:16:21.635Z,0.50
2019-01-25T16:18:28.444Z,0.60
2019-01-25T16:20:35.212Z,0.70
2019-01-25T16:22:42.531Z,0.57
2019-01-25T16:24:49.383Z,0.63
2019-01-25T16:26:56.657Z,0.60
2019-01-25T16:29:03.426Z,0.50
2019-01-25T16:31:10.713Z,0.90
2019-01-25T16:33:17.474Z,0.60
2019-01-25T16:35:24.411Z,0.70
2019-01-25T16:37:32.582Z,0.60
2019-01-25T16:39:39.381Z,0.70
2019-01-25T16:41:46.762Z,0.50
2019-01-25T16:43:54.193Z,0.60
2019-01-25T16:46:01.119Z,0.57
2019-01-25T16:48:08.167Z,0.50
2019-01-25T16:50:15.126Z,0.50
2019-01-25T16:52:22.476Z,0.90
2019-01-25T16:54:29.915Z,0.70
2019-01-25T16:56:36.861Z,0.50
2019-01-25T16:58:44.284Z,1.00
2019-01-25T17:00:53.212Z,0.70
2019-01-25T17:03:00.767Z,0.70
2019-01-25T17:05:08.655Z,0.63
2019-01-25T17:07:16.303Z,0.77
2019-01-25T17:09:23.674Z,0.60
2019-01-25T17:11:30.453Z,0.60
2019-01-25T17:13:37.302Z,0.50
2019-01-25T17:15:44.049Z,0.60
2019-01-25T17:17:50.831Z,0.50
2019-01-25T17:19:58.317Z,0.50
2019-01-25T17:22:05.163Z,0.70
2019-01-25T17:24:11.945Z,0.70
2019-01-25T17:26:19.277Z,0.60
2019-01-25T17:28:26.149Z,0.50
2019-01-25T17:30:34.891Z,0.50
2019-01-25T17:32:41.734Z,0.50
2019-01-25T17:34:48.482Z,0.73
2019-01-25T17:36:55.306Z,0.60
2019-01-25T17:39:02.116Z,0.70
2019-01-25T17:41:09.154Z,1.27
2019-01-25T17:43:16.321Z,0.60
2019-01-25T17:45:25.239Z,0.43
2019-01-25T17:47:32.765Z,0.50
2019-01-25T17:49:40.223Z,0.50
2019-01-25T17:51:47.050Z,0.67
2019-01-25T17:53:54.544Z,0.50
2019-01-25T17:56:01.989Z,0.40
2019-01-25T17:58:08.869Z,0.80
2019-01-25T18:00:20.298Z,0.50
2019-01-25T18:02:27.584Z,0.50
2019-01-25T18:04:34.736Z,0.53
2019-01-25T18:06:42.145Z,0.50
2019-01-25T18:08:48.962Z,0.40
2019-01-25T18:10:56.107Z,0.50
2019-01-25T18:13:02.906Z,0.50
2019-01-25T18:15:10.199Z,0.50
2019-01-25T18:17:17.122Z,0.60
2019-01-25T18:19:23.890Z,0.60
2019-01-25T18:21:32.153Z,0.60
2019-01-25T18:23:39.475Z,0.40
2019-01-25T18:25:55.915Z,0.60
2019-01-25T18:28:04.231Z,0.40
2019-01-25T18:30:18.489Z,0.47
2019-01-25T18:32:25.346Z,0.80
2019-01-25T18:34:32.123Z,0.53
2019-01-25T18:36:39.764Z,0.60
2019-01-25T18:38:46.793Z,0.50
2019-01-25T18:40:55.051Z,0.50
2019-01-25T18:43:02.438Z,0.50
2019-01-25T18:45:09.935Z,0.60
2019-01-25T18:47:16.713Z,0.50
2019-01-25T18:49:24.953Z,0.50
2019-01-25T18:51:31.756Z,0.43
2019-01-25T18:53:41.125Z,0.67
2019-01-25T18:55:49.089Z,0.53
2019-01-25T18:57:56.069Z,0.67
2019-01-25T19:00:30.860Z,0.40
2019-01-25T19:02:31.014Z,0.40
2019-01-25T19:04:37.952Z,0.50
2019-01-25T19:06:45.512Z,0.70
2019-01-25T19:08:54.010Z,0.70
2019-01-25T19:11:01.489Z,0.43
2019-01-25T19:13:11.938Z,0.60
2019-01-25T19:15:25.116Z,0.70
2019-01-25T19:17:32.171Z,0.60
2019-01-25T19:19:47.739Z,0.50
2019-01-25T19:24:56.435Z,0.50
2019-01-25T19:27:03.490Z,1.07
2019-01-25T19:29:11.380Z,0.70
2019-01-25T19:31:18.793Z,0.73
2019-01-25T19:33:25.728Z,0.80
2019-01-25T19:35:32.603Z,0.70
2019-01-25T19:37:39.936Z,0.70
2019-01-25T19:39:47.332Z,0.60
2019-01-25T19:41:54.347Z,0.60
2019-01-25T19:44:01.371Z,0.93
2019-01-25T19:46:08.989Z,0.80
2019-01-25T19:48:16.570Z,0.93
2019-01-25T19:50:24.649Z,1.10
2019-01-25T19:52:32.045Z,0.90
2019-01-25T19:54:46.597Z,1.10
2019-01-25T19:56:54.998Z,1.10
2019-01-25T19:59:02.563Z,1.20
2019-01-25T20:01:09.619Z,1.90
2019-01-25T20:03:16.619Z,1.70
2019-01-25T20:05:24.065Z,2.03
2019-01-25T20:07:41.371Z,1.80
2019-01-25T20:09:48.504Z,1.80
2019-01-25T20:11:55.838Z,3.00
2019-01-25T20:14:03.309Z,2.40
2019-01-25T20:16:10.205Z,1.83
2019-01-25T20:18:17.801Z,2.97
2019-01-25T20:20:26.755Z,3.60
2019-01-25T20:22:33.641Z,4.20
2019-01-25T20:24:40.992Z,2.80
2019-01-25T20:26:48.324Z,3.50
2019-01-25T20:28:55.198Z,2.30
2019-01-25T20:31:01.992Z,3.20
2019-01-25T20:33:08.939Z,2.20
2019-01-25T20:35:18.209Z,2.07
2019-01-25T20:37:25.588Z,1.90
2019-01-25T20:39:40.681Z,2.07
2019-01-25T20:41:47.898Z,2.70
2019-01-25T20:43:55.905Z,2.50
2019-01-25T20:46:03.418Z,2.33
2019-01-25T20:48:10.781Z,2.23
2019-01-25T20:50:19.896Z,2.27
2019-01-25T20:52:26.862Z,1.60
2019-01-25T20:54:34.670Z,2.03
2019-01-25T20:56:41.683Z,1.50
2019-01-25T20:58:49.224Z,1.73
2019-01-25T21:00:57.663Z,1.40
2019-01-25T21:03:22.806Z,1.23
2019-01-25T21:05:30.494Z,1.50
2019-01-25T21:07:37.451Z,1.30
2019-01-25T21:09:44.383Z,1.53
2019-01-25T21:11:52.525Z,0.93
2019-01-25T21:14:01.808Z,1.43
2019-01-25T21:16:09.141Z,1.33
2019-01-25T21:18:16.191Z,1.50
2019-01-25T21:20:35.173Z,1.10
2019-01-25T21:22:41.880Z,1.27
2019-01-25T21:24:49.254Z,1.30
2019-01-25T21:26:56.082Z,0.80
2019-01-25T21:29:24.819Z,0.90
2019-01-25T21:31:32.125Z,1.10
2019-01-25T21:33:40.883Z,0.80
2019-01-25T21:35:49.234Z,0.60
2019-01-25T21:38:35.546Z,1.00
2019-01-25T21:40:41.726Z,0.83
2019-01-25T21:42:49.235Z,1.13
2019-01-25T21:44:57.452Z,0.90
2019-01-25T21:47:04.622Z,0.80
2019-01-25T21:49:12.483Z,0.83
2019-01-25T21:51:51.137Z,0.87
2019-01-25T21:53:57.567Z,0.70
2019-01-25T21:56:04.806Z,1.00
2019-01-25T21:58:12.350Z,0.70
2019-01-25T22:00:24.104Z,0.87
2019-01-25T22:02:31.574Z,0.70
2019-01-25T22:04:48.780Z,0.80
2019-01-25T22:09:28.039Z,0.80
2019-01-25T22:11:38.152Z,0.63
2019-01-25T22:13:44.599Z,0.80
2019-01-25T22:16:04.017Z,1.02
2019-01-25T22:18:39.982Z,0.90
2019-01-25T22:21:00.042Z,0.80
2019-01-25T22:23:07.412Z,0.60
2019-01-25T22:25:15.162Z,0.90
2019-01-25T22:27:38.989Z,0.70
2019-01-25T22:29:47.011Z,0.80
2019-01-25T22:31:54.439Z,0.60
2019-01-25T22:36:31.396Z,0.70
2019-01-25T22:38:38.295Z,0.57
2019-01-25T22:40:59.426Z,0.50
2019-01-25T22:43:17.999Z,0.60
2019-01-25T22:48:30.628Z,0.60
2019-01-25T22:50:52.415Z,0.47
2019-01-25T22:52:59.694Z,0.70
2019-01-25T22:55:07.023Z,0.60
2019-01-25T22:57:13.821Z,0.50
2019-01-25T22:59:21.248Z,1.07
2019-01-25T23:01:31.642Z,0.60
2019-01-25T23:03:48.713Z,1.07
2019-01-25T23:06:16.046Z,0.60
2019-01-25T23:08:22.951Z,0.63
2019-01-25T23:10:32.511Z,0.50
2019-01-25T23:12:39.467Z,0.70
2019-01-25T23:14:46.291Z,0.50
2019-01-25T23:16:53.026Z,1.07
2019-01-25T23:18:59.781Z,0.50
2019-01-25T23:21:08.136Z,0.40
2019-01-25T23:23:15.536Z,1.00
2019-01-25T23:25:22.827Z,0.70
2019-01-25T23:27:29.614Z,0.50
2019-01-25T23:29:37.584Z,0.50
2019-01-25T23:31:44.787Z,0.60
2019-01-25T23:33:51.597Z,0.70
2019-01-25T23:35:58.908Z,0.47
2019-01-25T23:38:06.736Z,0.53
2019-01-25T23:40:15.588Z,0.70
2019-01-25T23:42:23.100Z,0.50
2019-01-25T23:44:29.833Z,0.47
2019-01-25T23:46:37.139Z,1.27
2019-01-25T23:48:44.443Z,0.43
2019-01-25T23:50:51.709Z,0.40
2019-01-25T23:52:59.071Z,0.50
2019-01-25T23:55:06.213Z,0.43
2019-01-25T23:57:12.937Z,0.70
2019-01-25T23:59:20.137Z,0.40
